createdAt,value
2018-08-23T00:01:24.342Z,20.28
2018-08-23T00:03:53.330Z,20.20
2018-08-23T00:11:34.130Z,20.15
2018-08-23T00:14:02.938Z,20.07
2018-08-23T00:16:52.041Z,20.05
2018-08-23T00:19:21.019Z,20.06
2018-08-23T00:21:50.711Z,20.07
2018-08-23T00:24:20.419Z,20.07
2018-08-23T00:26:52.731Z,20.05
2018-08-23T00:29:29.528Z,20.04
2018-08-23T00:32:00.381Z,20.03
2018-08-23T00:34:30.227Z,20.00
2018-08-23T00:36:59.215Z,20.02
2018-08-23T00:39:28.724Z,19.99
2018-08-23T00:42:02.697Z,19.99
2018-08-23T00:46:55.276Z,19.98
2018-08-23T00:49:28.115Z,19.98
2018-08-23T00:51:56.691Z,19.93
2018-08-23T00:54:26.129Z,19.90
2018-08-23T00:56:54.716Z,19.89
2018-08-23T02:28:08.951Z,18.60
2018-08-23T02:30:54.217Z,18.72
2018-08-23T02:33:22.927Z,18.68
2018-08-23T02:36:09.069Z,18.81
2018-08-23T02:38:37.801Z,18.87
2018-08-23T02:41:07.253Z,18.87
2018-08-23T02:43:35.960Z,18.87
2018-08-23T02:46:04.695Z,18.87
2018-08-23T02:48:33.329Z,18.89
2018-08-23T02:51:01.997Z,18.94
2018-08-23T02:53:43.036Z,18.98
2018-08-23T02:56:14.316Z,19.02
2018-08-23T02:58:54.151Z,19.02
2018-08-23T03:01:23.176Z,19.06
2018-08-23T03:04:03.016Z,19.09
2018-08-23T03:06:36.936Z,19.10
2018-08-23T03:09:07.700Z,19.12
2018-08-23T03:11:38.249Z,19.15
2018-08-23T03:14:07.321Z,19.18
2018-08-23T03:16:48.775Z,19.17
2018-08-23T03:19:17.547Z,19.16
2018-08-23T03:21:46.620Z,19.12
2018-08-23T03:24:19.674Z,19.15
2018-08-23T03:26:48.717Z,19.23
2018-08-23T03:29:17.444Z,19.15
2018-08-23T03:31:46.735Z,19.16
2018-08-23T03:34:15.349Z,19.18
2018-08-23T03:36:44.274Z,19.11
2018-08-23T03:39:14.021Z,19.11
2018-08-23T03:41:42.609Z,19.14
2018-08-23T03:44:24.736Z,19.10
2018-08-23T03:46:55.581Z,19.07
2018-08-23T03:49:31.566Z,19.12
2018-08-23T03:52:00.737Z,19.19
2018-08-23T03:54:30.756Z,19.22
2018-08-23T03:57:12.589Z,19.33
2018-08-23T03:59:43.900Z,19.33
2018-08-23T04:02:13.540Z,19.34
2018-08-23T04:04:42.383Z,19.36
2018-08-23T04:07:11.584Z,19.37
2018-08-23T04:09:40.385Z,19.33
2018-08-23T04:12:09.521Z,19.35
2018-08-23T04:14:38.652Z,19.32
2018-08-23T04:17:09.328Z,19.27
2018-08-23T04:19:42.257Z,19.21
2018-08-23T04:22:10.952Z,19.18
2018-08-23T04:24:44.760Z,19.27
2018-08-23T04:27:13.450Z,19.20
2018-08-23T04:29:46.340Z,19.23
2018-08-23T04:32:18.316Z,19.27
2018-08-23T04:34:46.916Z,19.25
2018-08-23T04:37:15.535Z,19.26
2018-08-23T04:39:49.694Z,19.26
2018-08-23T04:42:18.749Z,19.23
2018-08-23T04:44:52.685Z,19.30
2018-08-23T04:47:22.208Z,19.38
2018-08-23T04:49:51.578Z,19.44
2018-08-23T04:52:20.525Z,19.50
2018-08-23T04:54:49.265Z,19.57
2018-08-23T04:57:17.904Z,19.61
2018-08-23T04:59:46.597Z,19.70
2018-08-23T05:02:15.290Z,19.85
2018-08-23T05:04:44.546Z,19.94
2018-08-23T05:07:13.795Z,20.12
2018-08-23T05:09:43.013Z,20.38
2018-08-23T05:12:12.205Z,20.57
2018-08-23T05:14:42.025Z,20.76
2018-08-23T05:17:10.669Z,20.92
2018-08-23T05:19:39.332Z,21.08
2018-08-23T05:22:08.535Z,21.23
2018-08-23T05:24:38.029Z,21.42
2018-08-23T05:27:07.193Z,21.68
2018-08-23T05:29:36.448Z,21.91
2018-08-23T05:32:05.784Z,22.08
2018-08-23T05:34:34.989Z,22.18
2018-08-23T05:37:04.238Z,22.75
2018-08-23T05:39:45.181Z,23.66
2018-08-23T05:42:14.414Z,24.66
2018-08-23T05:44:43.741Z,25.49
2018-08-23T05:47:13.064Z,26.40
2018-08-23T05:49:42.316Z,27.44
2018-08-23T05:52:11.588Z,28.10
2018-08-23T05:54:40.852Z,28.84
2018-08-23T05:57:10.127Z,29.61
2018-08-23T05:59:39.288Z,29.94
2018-08-23T06:02:08.795Z,30.17
2018-08-23T06:04:42.657Z,30.45
2018-08-23T06:07:11.905Z,30.76
2018-08-23T06:09:42.007Z,31.35
2018-08-23T06:12:11.178Z,31.79
2018-08-23T06:14:40.396Z,31.76
2018-08-23T06:17:09.962Z,31.89
2018-08-23T06:19:39.146Z,32.35
2018-08-23T06:22:08.376Z,32.83
2018-08-23T06:24:37.546Z,33.46
2018-08-23T06:27:06.809Z,33.72
2018-08-23T06:29:36.597Z,33.62
2018-08-23T06:32:08.668Z,33.42
2018-08-23T06:34:46.765Z,33.94
2018-08-23T06:37:17.456Z,34.73
2018-08-23T06:39:47.120Z,35.48
2018-08-23T06:42:16.784Z,36.20
2018-08-23T06:44:50.004Z,36.78
2018-08-23T06:47:21.560Z,36.94
2018-08-23T06:49:51.827Z,37.36
2018-08-23T06:52:29.680Z,37.77
2018-08-23T06:54:58.686Z,37.90
2018-08-23T06:57:29.689Z,38.55
2018-08-23T06:59:58.904Z,38.84
2018-08-23T07:02:28.389Z,39.75
2018-08-23T07:04:57.393Z,40.02
2018-08-23T07:07:26.348Z,40.38
2018-08-23T07:09:55.296Z,39.97
2018-08-23T07:12:24.782Z,40.28
2018-08-23T07:14:53.681Z,41.27
2018-08-23T07:17:26.566Z,41.81
2018-08-23T07:19:55.740Z,41.53
2018-08-23T07:22:26.620Z,41.35
2018-08-23T07:24:57.214Z,41.57
2018-08-23T07:27:26.285Z,41.82
2018-08-23T07:29:57.745Z,42.22
2018-08-23T07:32:27.913Z,42.89
2018-08-23T07:35:04.980Z,43.70
2018-08-23T07:37:36.104Z,44.06
2018-08-23T07:40:09.555Z,44.32
2018-08-23T07:42:39.337Z,44.55
2018-08-23T07:45:09.040Z,44.92
2018-08-23T07:47:39.680Z,45.09
2018-08-23T07:50:08.683Z,45.34
2018-08-23T07:52:38.298Z,46.06
2018-08-23T07:55:07.844Z,45.76
2018-08-23T07:57:37.384Z,45.45
2018-08-23T08:00:30.039Z,45.54
2018-08-23T08:02:58.908Z,45.36
2018-08-23T08:05:31.472Z,45.09
2018-08-23T08:08:00.660Z,44.68
2018-08-23T08:10:41.533Z,44.76
2018-08-23T08:13:10.853Z,44.80
2018-08-23T08:15:39.753Z,45.04
2018-08-23T08:18:14.889Z,44.82
2018-08-23T08:20:47.917Z,44.59
2018-08-23T08:23:17.700Z,44.98
2018-08-23T08:25:46.631Z,45.51
2018-08-23T08:28:17.127Z,46.10
2018-08-23T08:30:47.176Z,46.79
2018-08-23T08:33:20.283Z,46.97
2018-08-23T08:35:49.440Z,47.24
2018-08-23T08:38:18.349Z,47.93
2018-08-23T08:40:48.368Z,47.91
2018-08-23T08:43:17.225Z,47.90
2018-08-23T08:45:46.108Z,47.27
2018-08-23T08:48:35.601Z,47.49
2018-08-23T08:51:19.987Z,47.55
2018-08-23T08:53:48.960Z,47.81
2018-08-23T08:56:22.990Z,47.68
2018-08-23T08:58:52.261Z,47.44
2018-08-23T09:01:21.438Z,46.82
2018-08-23T09:03:50.479Z,45.87
2018-08-23T09:06:29.343Z,44.52
2018-08-23T09:08:58.417Z,42.88
2018-08-23T09:11:28.959Z,41.79
2018-08-23T09:14:01.700Z,40.86
2018-08-23T09:16:30.857Z,39.77
2018-08-23T09:19:01.543Z,39.16
2018-08-23T09:21:31.061Z,38.24
2018-08-23T09:24:12.102Z,37.94
2018-08-23T09:26:41.484Z,37.67
2018-08-23T09:29:22.070Z,37.51
2018-08-23T09:31:51.293Z,37.32
2018-08-23T09:34:21.009Z,37.01
2018-08-23T09:36:50.580Z,36.79
2018-08-23T09:39:19.756Z,36.55
2018-08-23T09:41:49.149Z,36.46
2018-08-23T09:44:19.113Z,36.35
2018-08-23T09:46:52.675Z,36.03
2018-08-23T09:49:22.697Z,35.76
2018-08-23T09:51:51.844Z,35.29
2018-08-23T09:54:26.427Z,35.08
2018-08-23T09:56:56.093Z,34.81
2018-08-23T09:59:25.741Z,34.57
2018-08-23T10:02:00.235Z,34.42
2018-08-23T10:04:34.632Z,34.31
2018-08-23T10:07:09.069Z,34.43
2018-08-23T10:09:43.636Z,34.44
2018-08-23T10:12:18.109Z,34.49
2018-08-23T10:14:52.512Z,34.41
2018-08-23T10:17:27.253Z,34.53
2018-08-23T10:20:01.701Z,34.70
2018-08-23T10:22:33.821Z,34.73
2018-08-23T10:25:08.549Z,34.72
2018-08-23T10:27:37.804Z,34.78
2018-08-23T10:30:09.619Z,34.70
2018-08-23T10:32:39.022Z,34.68
2018-08-23T10:35:08.320Z,34.60
2018-08-23T10:37:37.489Z,34.39
2018-08-23T10:40:07.006Z,34.25
2018-08-23T10:42:36.264Z,34.18
2018-08-23T10:45:05.524Z,34.15
2018-08-23T10:47:40.053Z,34.15
2018-08-23T10:50:09.305Z,33.97
2018-08-23T10:52:38.564Z,33.98
2018-08-23T10:55:08.259Z,34.03
2018-08-23T10:57:37.776Z,34.13
2018-08-23T11:00:07.396Z,34.04
2018-08-23T11:02:36.797Z,34.03
2018-08-23T11:05:06.063Z,34.05
2018-08-23T11:07:41.129Z,34.00
2018-08-23T11:10:15.873Z,33.85
2018-08-23T11:12:51.144Z,33.77
2018-08-23T11:15:25.985Z,33.70
2018-08-23T11:18:00.770Z,33.58
2018-08-23T11:20:31.624Z,33.60
2018-08-23T11:23:00.857Z,33.60
2018-08-23T11:25:30.329Z,33.66
2018-08-23T11:28:03.660Z,33.68
2018-08-23T11:30:32.961Z,33.68
2018-08-23T11:33:06.358Z,33.56
2018-08-23T11:35:35.749Z,33.39
2018-08-23T11:38:06.337Z,33.45
2018-08-23T11:40:35.576Z,33.52
2018-08-23T11:43:04.928Z,33.45
2018-08-23T11:45:34.578Z,33.51
2018-08-23T11:48:03.826Z,33.61
2018-08-23T11:50:32.968Z,33.59
2018-08-23T11:53:02.202Z,33.58
2018-08-23T11:55:31.550Z,33.56
2018-08-23T11:58:00.761Z,33.62
2018-08-23T12:00:30.121Z,33.68
2018-08-23T12:02:59.305Z,33.72
2018-08-23T12:05:28.502Z,33.74
2018-08-23T12:07:57.704Z,33.73
2018-08-23T12:10:26.909Z,33.73
2018-08-23T12:12:56.220Z,33.71
2018-08-23T12:15:28.897Z,33.67
2018-08-23T12:17:58.688Z,33.71
2018-08-23T12:20:28.223Z,33.66
2018-08-23T12:22:57.426Z,33.56
2018-08-23T12:25:26.587Z,33.36
2018-08-23T12:27:59.456Z,33.34
2018-08-23T12:30:29.269Z,33.36
2018-08-23T12:32:58.400Z,33.38
2018-08-23T12:35:28.072Z,33.32
2018-08-23T12:38:03.016Z,33.38
2018-08-23T12:40:38.112Z,33.42
2018-08-23T12:43:09.197Z,33.45
2018-08-23T12:45:43.692Z,33.49
2018-08-23T12:48:14.164Z,33.54
2018-08-23T12:50:44.456Z,33.52
2018-08-23T12:53:13.724Z,33.54
2018-08-23T12:55:43.082Z,33.68
2018-08-23T12:58:13.348Z,33.89
2018-08-23T13:00:43.165Z,34.08
2018-08-23T13:03:12.476Z,34.28
2018-08-23T13:05:41.624Z,34.36
2018-08-23T13:08:10.912Z,34.38
2018-08-23T13:10:40.246Z,34.25
2018-08-23T13:13:09.404Z,34.16
2018-08-23T13:15:38.584Z,34.09
2018-08-23T13:18:07.820Z,34.08
2018-08-23T13:20:36.980Z,34.06
2018-08-23T13:23:06.301Z,34.06
2018-08-23T13:25:35.563Z,34.13
2018-08-23T13:28:04.842Z,34.20
2018-08-23T13:30:34.037Z,34.28
2018-08-23T13:33:03.293Z,34.36
2018-08-23T13:35:33.173Z,34.41
2018-08-23T13:38:02.618Z,34.41
2018-08-23T13:40:31.982Z,34.42
2018-08-23T13:43:01.192Z,34.42
2018-08-23T13:45:30.372Z,34.43
2018-08-23T13:48:00.132Z,34.39
2018-08-23T13:50:29.276Z,34.38
2018-08-23T13:52:58.500Z,34.29
2018-08-23T13:55:27.678Z,34.27
2018-08-23T13:57:57.156Z,34.30
2018-08-23T14:00:31.648Z,34.32
2018-08-23T14:03:01.152Z,34.34
2018-08-23T14:05:30.302Z,34.34
2018-08-23T14:07:59.544Z,34.40
2018-08-23T14:10:28.728Z,34.43
2018-08-23T14:12:58.021Z,34.42
2018-08-23T14:15:32.868Z,34.40
2018-08-23T14:18:02.184Z,34.39
2018-08-23T14:20:31.997Z,34.38
2018-08-23T14:23:01.932Z,34.38
2018-08-23T14:25:31.138Z,34.38
2018-08-23T14:28:00.368Z,34.44
2018-08-23T14:30:29.544Z,34.65
2018-08-23T14:32:58.760Z,34.89
2018-08-23T14:35:28.157Z,35.10
2018-08-23T14:37:57.360Z,35.26
2018-08-23T14:40:26.608Z,35.17
2018-08-23T14:42:56.341Z,35.11
2018-08-23T14:45:32.705Z,34.86
2018-08-23T14:48:07.155Z,34.67
2018-08-23T14:50:36.978Z,34.63
2018-08-23T14:53:07.701Z,34.61
2018-08-23T14:55:42.456Z,34.46
2018-08-23T14:58:12.121Z,34.34
2018-08-23T15:00:41.940Z,34.32
2018-08-23T15:03:11.192Z,34.28
2018-08-23T15:05:40.377Z,34.25
2018-08-23T15:08:09.620Z,34.25
2018-08-23T15:10:38.768Z,34.22
2018-08-23T15:13:07.980Z,34.14
2018-08-23T15:15:42.352Z,33.95
2018-08-23T15:18:11.629Z,33.85
2018-08-23T15:20:40.903Z,33.76
2018-08-23T15:23:10.562Z,33.72
2018-08-23T15:25:39.740Z,33.70
2018-08-23T15:28:09.072Z,33.67
2018-08-23T15:30:38.240Z,33.55
2018-08-23T15:33:07.569Z,33.53
2018-08-23T15:35:37.057Z,33.50
2018-08-23T15:38:06.536Z,33.44
2018-08-23T15:40:36.023Z,33.42
2018-08-23T15:43:05.208Z,33.41
2018-08-23T15:45:34.425Z,33.38
2018-08-23T15:48:03.687Z,33.35
2018-08-23T15:50:33.651Z,33.33
2018-08-23T15:53:02.896Z,33.27
2018-08-23T15:55:32.267Z,33.23
2018-08-23T15:58:01.617Z,33.17
2018-08-23T16:00:36.050Z,33.16
2018-08-23T16:03:05.964Z,33.12
2018-08-23T16:05:35.572Z,33.06
2018-08-23T16:08:05.252Z,33.03
2018-08-23T16:10:34.410Z,32.98
2018-08-23T16:13:03.857Z,32.98
2018-08-23T16:15:33.400Z,32.93
2018-08-23T16:18:07.928Z,32.95
2018-08-23T16:20:42.412Z,32.88
2018-08-23T16:23:11.913Z,32.91
2018-08-23T16:25:42.436Z,32.86
2018-08-23T16:28:11.700Z,32.82
2018-08-23T16:30:42.356Z,32.84
2018-08-23T16:33:12.432Z,32.89
2018-08-23T16:35:42.236Z,32.89
2018-08-23T16:38:11.980Z,32.84
2018-08-23T16:40:41.222Z,32.80
2018-08-23T16:43:10.803Z,32.80
2018-08-23T16:45:39.988Z,32.77
2018-08-23T16:48:09.280Z,32.75
2018-08-23T16:50:38.516Z,32.68
2018-08-23T16:53:07.757Z,32.60
2018-08-23T16:55:37.116Z,32.55
2018-08-23T16:58:06.360Z,32.47
2018-08-23T17:00:35.689Z,32.30
2018-08-23T17:03:04.956Z,32.20
2018-08-23T17:05:34.115Z,32.02
2018-08-23T17:08:03.412Z,31.87
2018-08-23T17:10:32.950Z,31.70
2018-08-23T17:13:02.101Z,31.56
2018-08-23T17:15:36.740Z,31.49
2018-08-23T17:18:06.086Z,31.37
2018-08-23T17:20:35.396Z,31.23
2018-08-23T17:23:04.660Z,31.13
2018-08-23T17:25:34.005Z,31.01
2018-08-23T17:28:03.249Z,30.92
2018-08-23T17:30:32.415Z,30.84
2018-08-23T17:33:01.607Z,30.76
2018-08-23T17:35:30.814Z,30.68
2018-08-23T17:38:00.044Z,30.57
2018-08-23T17:40:29.256Z,30.46
2018-08-23T17:42:58.595Z,30.35
2018-08-23T17:45:27.760Z,30.21
2018-08-23T17:47:57.181Z,30.13
2018-08-23T17:50:26.476Z,30.05
2018-08-23T17:52:55.881Z,29.95
2018-08-23T17:55:25.152Z,29.84
2018-08-23T17:57:54.428Z,29.72
2018-08-23T18:00:23.597Z,29.61
2018-08-23T18:02:52.785Z,29.49
2018-08-23T18:05:22.015Z,29.32
2018-08-23T18:07:51.276Z,29.20
2018-08-23T18:10:20.572Z,29.14
2018-08-23T18:12:49.721Z,29.03
2018-08-23T18:15:19.180Z,28.95
2018-08-23T18:17:48.682Z,28.87
2018-08-23T18:20:18.017Z,28.75
2018-08-23T18:22:47.598Z,28.65
2018-08-23T18:25:16.736Z,28.50
2018-08-23T18:27:45.892Z,28.42
2018-08-23T18:30:15.121Z,28.32
2018-08-23T18:32:44.373Z,28.13
2018-08-23T18:35:13.598Z,28.03
2018-08-23T18:37:42.931Z,27.87
2018-08-23T18:40:13.043Z,27.80
2018-08-23T18:42:42.448Z,27.81
2018-08-23T18:45:11.662Z,27.77
2018-08-23T18:47:40.905Z,27.64
2018-08-23T18:50:10.132Z,27.53
2018-08-23T18:52:39.512Z,27.52
2018-08-23T18:55:08.801Z,27.69
2018-08-23T18:57:37.948Z,27.83
2018-08-23T19:00:07.488Z,28.00
2018-08-23T19:02:36.749Z,28.14
2018-08-23T19:05:06.242Z,28.12
2018-08-23T19:07:43.150Z,28.00
2018-08-23T19:10:12.841Z,28.09
2018-08-23T19:12:42.056Z,27.98
2018-08-23T19:15:11.239Z,28.00
2018-08-23T19:17:42.493Z,27.94
2018-08-23T19:20:13.066Z,27.78
2018-08-23T19:22:42.216Z,27.60
2018-08-23T19:25:11.632Z,27.50
2018-08-23T19:27:41.021Z,27.38
2018-08-23T19:30:10.463Z,27.20
2018-08-23T19:32:39.624Z,27.09
2018-08-23T19:35:08.837Z,27.10
2018-08-23T19:37:38.155Z,26.94
2018-08-23T19:40:07.579Z,26.71
2018-08-23T19:42:37.124Z,26.50
2018-08-23T19:45:06.353Z,26.41
2018-08-23T19:47:40.936Z,26.36
2018-08-23T19:50:11.173Z,26.23
2018-08-23T19:52:40.333Z,26.07
2018-08-23T19:55:10.528Z,25.94
2018-08-23T19:57:39.750Z,25.83
2018-08-23T20:00:10.948Z,25.70
2018-08-23T20:02:40.266Z,25.68
2018-08-23T20:05:09.461Z,25.69
2018-08-23T20:07:38.679Z,25.64
2018-08-23T20:10:08.775Z,25.58
2018-08-23T20:12:38.102Z,25.48
2018-08-23T20:15:08.516Z,25.46
2018-08-23T20:17:38.596Z,25.36
2018-08-23T20:20:09.747Z,25.26
2018-08-23T20:22:39.125Z,25.16
2018-08-23T20:25:08.527Z,25.07
2018-08-23T20:27:37.725Z,25.01
2018-08-23T20:30:07.212Z,24.96
2018-08-23T20:32:37.118Z,24.93
2018-08-23T20:35:06.372Z,24.88
2018-08-23T20:37:35.571Z,24.88
2018-08-23T20:40:05.516Z,24.81
2018-08-23T20:42:34.858Z,24.70
2018-08-23T20:45:04.161Z,24.60
2018-08-23T20:47:33.401Z,24.62
2018-08-23T20:50:02.596Z,24.73
2018-08-23T20:52:31.789Z,24.76
2018-08-23T20:55:01.243Z,24.98
2018-08-23T20:57:30.490Z,25.33
2018-08-23T20:59:59.729Z,25.45
2018-08-23T21:02:29.248Z,25.63
2018-08-23T21:04:58.392Z,25.79
2018-08-23T21:07:27.645Z,25.89
2018-08-23T21:09:57.003Z,26.03
2018-08-23T21:12:26.343Z,26.13
2018-08-23T21:14:55.484Z,26.22
2018-08-23T21:17:24.854Z,26.20
2018-08-23T21:19:54.026Z,26.24
2018-08-23T21:22:23.232Z,26.24
2018-08-23T21:24:52.460Z,26.22
2018-08-23T21:27:21.692Z,26.21
2018-08-23T21:29:50.877Z,26.09
2018-08-23T21:32:20.101Z,26.00
2018-08-23T21:34:49.300Z,25.85
2018-08-23T21:37:18.448Z,25.85
2018-08-23T21:39:47.600Z,25.66
2018-08-23T21:42:16.744Z,25.56
2018-08-23T21:44:45.995Z,25.36
2018-08-23T21:47:16.361Z,25.20
2018-08-23T21:49:45.721Z,25.09
2018-08-23T21:52:14.978Z,25.08
2018-08-23T21:54:44.191Z,24.95
2018-08-23T21:57:13.340Z,24.80
2018-08-23T21:59:42.516Z,24.81
2018-08-23T22:02:20.295Z,24.62
2018-08-23T22:04:54.832Z,24.54
2018-08-23T22:07:24.021Z,24.37
2018-08-23T22:09:54.365Z,24.39
2018-08-23T22:12:25.524Z,24.36
2018-08-23T22:14:55.724Z,24.28
2018-08-23T22:17:25.316Z,24.16
2018-08-23T22:19:54.451Z,24.04
2018-08-23T22:22:23.725Z,23.89
2018-08-23T22:24:53.252Z,23.74
2018-08-23T22:27:22.476Z,23.70
2018-08-23T22:29:51.711Z,23.68
2018-08-23T22:32:20.892Z,23.89
2018-08-23T22:34:50.069Z,23.91
2018-08-23T22:37:19.320Z,23.95
2018-08-23T22:39:48.480Z,23.86
2018-08-23T22:42:17.742Z,23.91
2018-08-23T22:44:46.900Z,23.97
2018-08-23T22:47:16.213Z,24.13
2018-08-23T22:49:45.471Z,24.11
2018-08-23T22:52:14.832Z,24.08
2018-08-23T22:54:44.056Z,24.09
2018-08-23T22:57:13.237Z,24.11
2018-08-23T22:59:42.493Z,24.19
2018-08-23T23:02:15.875Z,24.21
2018-08-23T23:04:45.125Z,24.20
2018-08-23T23:07:14.336Z,24.16
2018-08-23T23:09:43.502Z,24.19
2018-08-23T23:12:12.658Z,24.15
2018-08-23T23:14:41.844Z,24.10
2018-08-23T23:17:11.584Z,24.04
2018-08-23T23:19:40.779Z,23.92
2018-08-23T23:22:09.958Z,23.89
2018-08-23T23:25:12.248Z,23.70
2018-08-23T23:27:41.417Z,23.43
2018-08-23T23:30:10.624Z,23.36
2018-08-23T23:32:39.829Z,23.27
2018-08-23T23:35:09.029Z,22.97
2018-08-23T23:37:38.266Z,22.80
2018-08-23T23:40:07.654Z,22.58
2018-08-23T23:42:37.397Z,22.39
2018-08-23T23:45:07.748Z,22.27
2018-08-23T23:47:37.366Z,22.29
2018-08-23T23:50:07.504Z,22.11
2018-08-23T23:52:36.714Z,22.00
2018-08-23T23:55:06.504Z,21.84
2018-08-23T23:57:36.562Z,21.79
